createdAt,value
2022-08-20T00:04:59.053Z,19
2022-08-20T00:10:00.666Z,20
2022-08-20T00:15:02.283Z,19
2022-08-20T00:20:03.889Z,16
2022-08-20T00:25:05.489Z,19
2022-08-20T00:30:07.168Z,18
2022-08-20T00:35:08.755Z,17
2022-08-20T00:40:22.535Z,19
2022-08-20T00:45:24.852Z,18
2022-08-20T00:50:26.512Z,26
2022-08-20T00:55:31.466Z,20
2022-08-20T01:00:33.529Z,22
2022-08-20T01:05:35.502Z,24
2022-08-20T01:10:37.072Z,19
2022-08-20T01:15:42.633Z,20
2022-08-20T01:20:44.898Z,17
2022-08-20T01:25:46.480Z,20
2022-08-20T01:30:48.214Z,22
2022-08-20T01:35:49.798Z,17
2022-08-20T01:40:51.398Z,19
2022-08-20T01:45:53.014Z,21
2022-08-20T01:50:54.638Z,20
2022-08-20T01:55:56.220Z,17
2022-08-20T02:00:58.716Z,16
2022-08-20T02:06:00.396Z,18
2022-08-20T02:11:02.064Z,18
2022-08-20T02:16:03.655Z,23
2022-08-20T02:21:05.281Z,18
2022-08-20T02:26:06.902Z,16
2022-08-20T02:31:08.508Z,19
2022-08-20T02:36:10.157Z,15
2022-08-20T02:41:11.799Z,20
2022-08-20T02:46:13.406Z,19
2022-08-20T02:51:14.987Z,27
2022-08-20T02:56:16.627Z,21
2022-08-20T03:01:18.293Z,24
2022-08-20T03:06:19.915Z,23
2022-08-20T03:11:21.527Z,21
2022-08-20T03:16:23.151Z,22
2022-08-20T03:21:24.760Z,21
2022-08-20T03:26:26.374Z,20
2022-08-20T03:31:28.006Z,23
2022-08-20T03:36:29.616Z,22
2022-08-20T03:41:31.229Z,24
2022-08-20T03:46:32.821Z,26
2022-08-20T03:51:56.457Z,28
2022-08-20T03:57:00.275Z,21
2022-08-20T04:02:01.979Z,23
2022-08-20T04:07:03.714Z,24
2022-08-20T04:12:05.325Z,28
2022-08-20T04:17:06.985Z,24
2022-08-20T04:22:08.583Z,23
2022-08-20T04:27:10.210Z,21
2022-08-20T04:32:11.798Z,24
2022-08-20T04:37:17.346Z,20
2022-08-20T04:42:19.147Z,25
2022-08-20T04:47:20.938Z,20
2022-08-20T04:52:36.202Z,20
2022-08-20T04:57:38.012Z,24
2022-08-20T05:02:39.621Z,22
2022-08-20T05:07:41.243Z,19
2022-08-20T05:12:42.924Z,24
2022-08-20T05:17:58.502Z,25
2022-08-20T05:23:00.092Z,22
2022-08-20T05:28:01.830Z,16
2022-08-20T05:33:04.317Z,21
2022-08-20T05:38:06.155Z,20
2022-08-20T05:43:07.788Z,18
2022-08-20T05:48:09.547Z,18
2022-08-20T05:53:11.200Z,16
2022-08-20T05:58:12.857Z,16
2022-08-20T06:03:14.567Z,20
2022-08-20T06:08:16.171Z,23
2022-08-20T06:13:17.907Z,18
2022-08-20T06:18:28.612Z,21
2022-08-20T06:23:43.659Z,20
2022-08-20T06:28:59.842Z,21
2022-08-20T06:34:01.416Z,22
2022-08-20T06:39:03.076Z,22
2022-08-20T06:44:04.664Z,19
2022-08-20T06:49:06.280Z,21
2022-08-20T06:54:07.946Z,23
2022-08-20T06:59:09.549Z,24
2022-08-20T07:04:11.146Z,22
2022-08-20T07:09:12.752Z,22
2022-08-20T07:14:14.344Z,25
2022-08-20T07:19:15.963Z,21
2022-08-20T07:24:17.543Z,20
2022-08-20T07:29:21.644Z,26
2022-08-20T07:34:23.610Z,20
2022-08-20T07:39:25.413Z,21
2022-08-20T07:44:31.040Z,21
2022-08-20T07:49:33.090Z,19
2022-08-20T07:54:34.657Z,21
2022-08-20T07:59:36.402Z,18
2022-08-20T08:04:38.052Z,27
2022-08-20T08:09:39.692Z,26
2022-08-20T08:14:41.326Z,22
2022-08-20T08:19:42.995Z,19
2022-08-20T08:24:57.082Z,25
2022-08-20T08:29:59.445Z,26
2022-08-20T08:35:01.041Z,23
2022-08-20T08:40:02.710Z,25
2022-08-20T08:45:04.405Z,25
2022-08-20T08:50:05.970Z,23
2022-08-20T08:55:07.572Z,28
2022-08-20T09:00:09.157Z,21
2022-08-20T09:05:10.771Z,26
2022-08-20T09:10:12.362Z,29
2022-08-20T09:15:14.004Z,28
2022-08-20T09:20:16.615Z,25
2022-08-20T09:25:18.212Z,24
2022-08-20T09:30:19.753Z,26
2022-08-20T09:35:22.016Z,24
2022-08-20T09:40:23.763Z,22
2022-08-20T09:45:25.413Z,25
2022-08-20T09:50:27.051Z,22
2022-08-20T09:55:28.682Z,25
2022-08-20T10:00:30.318Z,23
2022-08-20T10:05:31.937Z,27
2022-08-20T10:10:33.711Z,24
2022-08-20T10:15:35.297Z,24
2022-08-20T10:20:36.993Z,26
2022-08-20T10:25:38.643Z,28
2022-08-20T10:30:40.224Z,21
2022-08-20T10:35:41.883Z,30
2022-08-20T10:40:43.527Z,26
2022-08-20T10:45:54.212Z,22
2022-08-20T10:50:55.778Z,27
2022-08-20T10:55:57.389Z,25
2022-08-20T11:00:59.121Z,23
2022-08-20T11:06:00.740Z,25
2022-08-20T11:11:02.422Z,30
2022-08-20T11:16:04.038Z,28
2022-08-20T11:21:05.629Z,24
2022-08-20T11:26:10.488Z,25
2022-08-20T11:31:12.091Z,26
2022-08-20T11:36:13.739Z,26
2022-08-20T11:41:15.362Z,27
2022-08-20T11:46:16.996Z,26
2022-08-20T11:51:18.680Z,30
2022-08-20T11:56:20.275Z,26
2022-08-20T12:01:22.726Z,26
2022-08-20T12:06:24.340Z,27
2022-08-20T12:11:25.958Z,27
2022-08-20T12:16:27.588Z,24
2022-08-20T12:21:32.369Z,31
2022-08-20T12:26:34.371Z,28
2022-08-20T12:31:35.998Z,27
2022-08-20T12:36:37.605Z,27
2022-08-20T12:41:39.325Z,23
2022-08-20T12:46:40.962Z,25
2022-08-20T12:51:42.586Z,27
2022-08-20T12:56:44.189Z,23
2022-08-20T13:01:45.879Z,26
2022-08-20T13:06:47.664Z,27
2022-08-20T13:11:49.788Z,23
2022-08-20T13:16:51.367Z,23
2022-08-20T13:21:55.356Z,24
2022-08-20T13:26:56.970Z,22
2022-08-20T13:31:58.588Z,28
2022-08-20T13:37:00.213Z,24
2022-08-20T13:42:01.815Z,22
2022-08-20T13:47:03.437Z,25
2022-08-20T13:52:05.112Z,22
2022-08-20T13:57:07.368Z,26
2022-08-20T14:02:09.038Z,26
2022-08-20T14:07:10.727Z,21
2022-08-20T14:12:12.333Z,24
2022-08-20T14:17:13.915Z,25
2022-08-20T14:22:16.859Z,23
2022-08-20T14:27:18.474Z,24
2022-08-20T14:32:20.098Z,21
2022-08-20T14:37:21.896Z,20
2022-08-20T14:42:23.454Z,22
2022-08-20T14:47:25.037Z,21
2022-08-20T14:52:27.667Z,21
2022-08-20T14:57:29.954Z,23
2022-08-20T15:02:31.584Z,21
2022-08-20T15:07:33.200Z,21
2022-08-20T15:12:34.794Z,19
2022-08-20T15:17:36.402Z,20
2022-08-20T15:22:38.019Z,19
2022-08-20T15:27:39.626Z,23
2022-08-20T15:32:41.248Z,20
2022-08-20T15:37:42.940Z,19
2022-08-20T15:42:46.558Z,23
2022-08-20T15:47:48.411Z,20
2022-08-20T15:52:49.993Z,21
2022-08-20T15:57:51.705Z,18
2022-08-20T16:02:53.367Z,19
2022-08-20T16:07:54.999Z,20
2022-08-20T16:12:56.743Z,22
2022-08-20T16:17:58.395Z,20
2022-08-20T16:23:00.017Z,19
2022-08-20T16:28:01.655Z,22
2022-08-20T16:33:03.290Z,16
2022-08-20T16:38:04.865Z,17
2022-08-20T16:43:06.494Z,17
2022-08-20T16:48:08.100Z,22
2022-08-20T16:53:09.829Z,15
2022-08-20T16:58:11.525Z,16
2022-08-20T17:03:13.184Z,20
2022-08-20T17:08:14.781Z,18
2022-08-20T17:13:18.777Z,16
2022-08-20T17:18:20.381Z,16
2022-08-20T17:23:22.004Z,16
2022-08-20T17:28:23.678Z,17
2022-08-20T17:33:25.271Z,16
2022-08-20T17:38:26.894Z,21
2022-08-20T17:43:28.483Z,14
2022-08-20T17:48:30.125Z,17
2022-08-20T17:53:31.749Z,17
2022-08-20T17:58:33.368Z,16
2022-08-20T18:03:34.967Z,17
2022-08-20T18:08:36.637Z,17
2022-08-20T18:13:38.229Z,12
2022-08-20T18:18:56.270Z,12
2022-08-20T18:23:58.896Z,17
2022-08-20T18:29:00.493Z,19
2022-08-20T18:34:02.152Z,16
2022-08-20T18:39:03.790Z,16
2022-08-20T18:44:05.398Z,18
2022-08-20T18:49:06.977Z,16
2022-08-20T18:54:08.566Z,16
2022-08-20T18:59:10.192Z,14
2022-08-20T19:04:11.841Z,15
2022-08-20T19:09:13.472Z,19
2022-08-20T19:14:15.071Z,15
2022-08-20T19:19:16.794Z,15
2022-08-20T19:24:18.429Z,15
2022-08-20T19:29:20.120Z,15
2022-08-20T19:34:22.564Z,18
2022-08-20T19:39:25.726Z,14
2022-08-20T19:44:27.589Z,18
2022-08-20T19:49:29.210Z,17
2022-08-20T19:54:30.909Z,17
2022-08-20T19:59:32.488Z,13
2022-08-20T20:04:34.118Z,17
2022-08-20T20:09:35.770Z,18
2022-08-20T20:14:37.346Z,15
2022-08-20T20:19:38.979Z,14
2022-08-20T20:24:40.600Z,14
2022-08-20T20:29:42.255Z,16
2022-08-20T20:34:55.449Z,17
2022-08-20T20:39:57.880Z,18
2022-08-20T20:44:59.549Z,16
2022-08-20T20:50:01.196Z,16
2022-08-20T20:55:02.799Z,16
2022-08-20T21:00:04.423Z,20
2022-08-20T21:05:06.127Z,16
2022-08-20T21:10:07.771Z,18
2022-08-20T21:15:09.346Z,18
2022-08-20T21:20:10.922Z,17
2022-08-20T21:25:12.496Z,18
2022-08-20T21:30:14.126Z,19
2022-08-20T21:35:15.719Z,18
2022-08-20T21:40:18.283Z,18
2022-08-20T21:45:23.650Z,17
2022-08-20T21:50:30.214Z,19
2022-08-20T21:55:36.146Z,16
2022-08-20T22:00:40.508Z,17
2022-08-20T22:05:42.085Z,16
2022-08-20T22:10:43.723Z,15
2022-08-20T22:15:45.313Z,18
2022-08-20T22:20:46.912Z,19
2022-08-20T22:25:48.528Z,20
2022-08-20T22:30:50.138Z,20
2022-08-20T22:35:51.749Z,18
2022-08-20T22:40:53.397Z,17
2022-08-20T22:45:54.979Z,21
2022-08-20T22:50:56.625Z,19
2022-08-20T22:55:58.214Z,20
2022-08-20T23:01:00.002Z,20
2022-08-20T23:06:01.684Z,22
2022-08-20T23:11:03.299Z,19
2022-08-20T23:16:04.917Z,22
2022-08-20T23:21:06.509Z,20
2022-08-20T23:26:08.108Z,22
2022-08-20T23:31:09.733Z,24
2022-08-20T23:36:11.321Z,19
2022-08-20T23:41:12.907Z,23
2022-08-20T23:46:14.520Z,19
2022-08-20T23:51:16.096Z,20
2022-08-20T23:56:17.762Z,20
